createdAt,value
2018-09-23T00:02:05.584Z,76.60
2018-09-23T00:04:33.324Z,77.06
2018-09-23T00:07:00.984Z,78.21
2018-09-23T00:09:28.679Z,78.08
2018-09-23T00:11:56.343Z,77.85
2018-09-23T00:14:24.061Z,77.42
2018-09-23T00:16:51.726Z,77.62
2018-09-23T00:19:19.395Z,78.10
2018-09-23T00:21:47.140Z,77.79
2018-09-23T00:24:14.836Z,76.36
2018-09-23T00:26:42.508Z,77.23
2018-09-23T00:29:10.212Z,76.57
2018-09-23T00:31:37.937Z,77.06
2018-09-23T00:34:05.608Z,77.32
2018-09-23T00:36:33.325Z,76.21
2018-09-23T00:39:01.004Z,76.83
2018-09-23T00:41:28.687Z,76.67
2018-09-23T00:43:56.420Z,77.31
2018-09-23T00:46:24.096Z,76.97
2018-09-23T00:48:51.865Z,76.95
2018-09-23T00:51:19.580Z,77.47
2018-09-23T00:53:47.250Z,77.64
2018-09-23T00:56:15.033Z,76.68
2018-09-23T00:58:42.720Z,77.87
2018-09-23T01:01:10.523Z,77.35
2018-09-23T01:03:38.212Z,77.72
2018-09-23T01:06:05.900Z,76.75
2018-09-23T01:08:33.573Z,77.02
2018-09-23T01:11:01.253Z,77.95
2018-09-23T01:13:28.903Z,77.46
2018-09-23T01:15:56.596Z,77.41
2018-09-23T01:18:24.287Z,76.94
2018-09-23T01:20:51.966Z,77.50
2018-09-23T01:23:19.619Z,77.18
2018-09-23T01:25:47.331Z,77.68
2018-09-23T01:28:15.000Z,78.07
2018-09-23T01:30:42.724Z,78.22
2018-09-23T01:33:10.423Z,78.24
2018-09-23T01:35:38.083Z,78.06
2018-09-23T01:38:05.813Z,78.43
2018-09-23T01:40:33.540Z,78.55
2018-09-23T01:43:01.188Z,78.68
2018-09-23T01:45:28.860Z,78.49
2018-09-23T01:47:56.567Z,78.58
2018-09-23T01:50:24.228Z,78.83
2018-09-23T01:52:51.920Z,78.86
2018-09-23T01:55:19.624Z,78.24
2018-09-23T01:57:47.344Z,79.08
2018-09-23T02:00:15.009Z,78.83
2018-09-23T02:02:43.398Z,79.19
2018-09-23T02:05:11.132Z,79.43
2018-09-23T02:07:38.799Z,78.94
2018-09-23T02:10:06.490Z,78.78
2018-09-23T02:12:34.176Z,79.03
2018-09-23T02:15:01.848Z,79.22
2018-09-23T02:17:29.556Z,79.24
2018-09-23T02:19:57.231Z,79.44
2018-09-23T02:22:24.928Z,79.91
2018-09-23T02:24:52.648Z,80.00
2018-09-23T02:27:20.307Z,79.83
2018-09-23T02:29:47.992Z,80.37
2018-09-23T02:32:15.716Z,79.88
2018-09-23T02:34:43.380Z,80.19
2018-09-23T02:37:11.095Z,80.24
2018-09-23T02:39:38.783Z,80.20
2018-09-23T02:42:06.484Z,80.56
2018-09-23T02:44:34.143Z,80.56
2018-09-23T02:47:01.878Z,80.85
2018-09-23T02:49:29.559Z,80.88
2018-09-23T02:51:57.248Z,81.47
2018-09-23T02:54:24.973Z,81.59
2018-09-23T02:56:52.675Z,81.74
2018-09-23T02:59:20.396Z,81.70
2018-09-23T03:01:48.055Z,81.53
2018-09-23T03:04:15.720Z,82.38
2018-09-23T03:06:43.404Z,81.92
2018-09-23T03:09:11.121Z,81.84
2018-09-23T03:11:38.788Z,82.13
2018-09-23T03:14:06.499Z,82.17
2018-09-23T03:16:34.192Z,82.42
2018-09-23T03:19:01.876Z,82.48
2018-09-23T03:21:29.552Z,82.58
2018-09-23T03:23:57.295Z,82.91
2018-09-23T03:26:24.948Z,82.88
2018-09-23T03:28:52.619Z,83.12
2018-09-23T03:31:20.310Z,83.29
2018-09-23T03:33:47.985Z,83.59
2018-09-23T03:36:15.660Z,83.62
2018-09-23T03:38:43.435Z,83.19
2018-09-23T03:41:11.092Z,83.60
2018-09-23T03:43:38.775Z,83.57
2018-09-23T03:46:06.457Z,83.47
2018-09-23T03:48:34.117Z,84.20
2018-09-23T03:51:01.907Z,84.46
2018-09-23T03:53:29.603Z,84.64
2018-09-23T03:55:57.336Z,85.24
2018-09-23T03:58:25.016Z,84.46
2018-09-23T04:00:52.684Z,84.53
2018-09-23T04:03:20.380Z,84.71
2018-09-23T04:05:48.047Z,85.45
2018-09-23T04:08:15.744Z,85.08
2018-09-23T04:10:43.411Z,84.91
2018-09-23T04:13:11.067Z,85.54
2018-09-23T04:15:38.776Z,84.98
2018-09-23T04:18:06.439Z,85.52
2018-09-23T04:20:34.184Z,85.71
2018-09-23T04:23:01.905Z,85.56
2018-09-23T04:25:29.575Z,85.41
2018-09-23T04:27:57.239Z,85.14
2018-09-23T04:30:24.935Z,85.06
2018-09-23T04:32:52.646Z,85.21
2018-09-23T04:35:20.382Z,85.17
2018-09-23T04:37:48.174Z,86.19
2018-09-23T04:40:15.870Z,85.76
2018-09-23T04:42:43.597Z,86.01
2018-09-23T04:45:11.281Z,86.25
2018-09-23T04:47:39.092Z,86.33
2018-09-23T04:50:06.838Z,86.25
2018-09-23T04:52:34.516Z,86.02
2018-09-23T04:55:02.231Z,86.30
2018-09-23T04:57:29.903Z,86.24
2018-09-23T04:59:57.588Z,86.16
2018-09-23T05:02:25.271Z,85.81
2018-09-23T05:04:52.940Z,85.15
2018-09-23T05:07:20.923Z,84.46
2018-09-23T05:09:48.672Z,85.01
2018-09-23T05:12:16.363Z,84.26
2018-09-23T05:14:44.493Z,84.06
2018-09-23T05:17:12.239Z,83.71
2018-09-23T05:19:39.918Z,83.17
2018-09-23T05:22:07.746Z,82.78
2018-09-23T05:24:35.399Z,81.82
2018-09-23T05:27:03.061Z,81.53
2018-09-23T05:29:30.818Z,81.38
2018-09-23T05:31:58.551Z,81.68
2018-09-23T05:34:26.243Z,80.23
2018-09-23T05:36:53.975Z,80.08
2018-09-23T05:39:21.619Z,79.29
2018-09-23T05:41:49.267Z,79.43
2018-09-23T05:44:16.984Z,78.74
2018-09-23T05:46:44.673Z,79.15
2018-09-23T05:49:12.326Z,77.67
2018-09-23T05:51:40.033Z,78.15
2018-09-23T05:54:07.723Z,78.20
2018-09-23T05:56:35.392Z,77.27
2018-09-23T05:59:03.070Z,77.05
2018-09-23T06:01:30.788Z,77.39
2018-09-23T06:03:58.459Z,78.67
2018-09-23T06:06:26.164Z,77.89
2018-09-23T06:08:53.951Z,78.52
2018-09-23T06:11:21.625Z,78.34
2018-09-23T06:13:49.321Z,78.01
2018-09-23T06:16:17.017Z,77.88
2018-09-23T06:18:44.696Z,76.61
2018-09-23T06:21:12.360Z,75.12
2018-09-23T06:23:40.447Z,75.94
2018-09-23T06:26:08.116Z,76.73
2018-09-23T06:28:35.775Z,76.40
2018-09-23T06:31:03.557Z,75.80
2018-09-23T06:33:31.230Z,75.94
2018-09-23T06:35:58.928Z,74.35
2018-09-23T06:38:26.694Z,73.85
2018-09-23T06:40:54.364Z,73.67
2018-09-23T06:43:22.423Z,74.57
2018-09-23T06:45:50.178Z,73.38
2018-09-23T06:48:18.164Z,73.91
2018-09-23T06:50:45.890Z,72.70
2018-09-23T06:53:13.551Z,71.65
2018-09-23T06:55:41.216Z,72.35
2018-09-23T06:58:08.884Z,71.14
2018-09-23T07:00:36.556Z,68.72
2018-09-23T07:03:04.365Z,68.35
2018-09-23T07:05:32.038Z,68.88
2018-09-23T07:07:59.719Z,68.94
2018-09-23T07:10:27.484Z,70.28
2018-09-23T07:12:55.131Z,68.21
2018-09-23T07:15:22.828Z,65.93
2018-09-23T07:17:50.557Z,66.14
2018-09-23T07:20:18.229Z,68.96
2018-09-23T07:22:45.950Z,68.80
2018-09-23T07:25:13.663Z,68.28
2018-09-23T07:27:41.365Z,67.39
2018-09-23T07:30:09.112Z,69.32
2018-09-23T07:32:36.780Z,68.43
2018-09-23T07:35:04.500Z,69.04
2018-09-23T07:37:32.192Z,70.11
2018-09-23T07:39:59.899Z,67.64
2018-09-23T07:42:27.549Z,69.11
2018-09-23T07:44:55.301Z,69.35
2018-09-23T07:47:22.956Z,68.93
2018-09-23T07:49:50.611Z,66.33
2018-09-23T07:52:18.320Z,66.95
2018-09-23T07:54:45.976Z,63.43
2018-09-23T07:57:13.653Z,65.54
2018-09-23T07:59:41.339Z,60.08
2018-09-23T08:02:09.015Z,63.97
2018-09-23T08:04:36.805Z,63.61
2018-09-23T08:07:04.533Z,63.19
2018-09-23T08:09:32.227Z,62.76
2018-09-23T08:11:59.927Z,62.42
2018-09-23T08:14:28.019Z,62.63
2018-09-23T08:16:55.676Z,62.15
2018-09-23T08:19:23.747Z,61.71
2018-09-23T08:21:51.643Z,61.61
2018-09-23T08:24:19.324Z,60.22
2018-09-23T08:26:47.017Z,60.76
2018-09-23T08:29:14.719Z,56.87
2018-09-23T08:31:42.404Z,61.73
2018-09-23T08:34:10.137Z,61.14
2018-09-23T08:36:37.800Z,60.69
2018-09-23T08:39:06.279Z,60.47
2018-09-23T08:41:34.019Z,59.68
2018-09-23T08:44:01.751Z,59.34
2018-09-23T08:46:30.271Z,56.47
2018-09-23T08:48:57.964Z,53.83
2018-09-23T08:51:25.627Z,54.05
2018-09-23T08:53:53.309Z,56.66
2018-09-23T08:56:21.015Z,54.31
2018-09-23T08:58:48.708Z,55.39
2018-09-23T09:01:16.355Z,56.76
2018-09-23T09:03:44.046Z,56.01
2018-09-23T09:06:11.794Z,53.29
2018-09-23T09:08:39.589Z,55.67
2018-09-23T09:11:07.280Z,54.83
2018-09-23T09:13:35.397Z,56.65
2018-09-23T09:16:03.236Z,54.59
2018-09-23T09:18:30.989Z,51.12
2018-09-23T09:20:58.779Z,56.11
2018-09-23T09:23:26.616Z,55.07
2018-09-23T09:25:54.365Z,55.23
2018-09-23T09:28:22.019Z,56.82
2018-09-23T09:30:49.755Z,53.73
2018-09-23T09:33:17.419Z,51.65
2018-09-23T09:35:45.084Z,54.30
2018-09-23T09:38:12.782Z,54.68
2018-09-23T09:40:40.501Z,54.03
2018-09-23T09:43:08.160Z,55.30
2018-09-23T09:45:35.850Z,55.42
2018-09-23T09:48:03.500Z,53.15
2018-09-23T09:50:31.188Z,55.12
2018-09-23T09:52:58.899Z,55.07
2018-09-23T09:55:26.635Z,53.47
2018-09-23T09:57:54.379Z,53.27
2018-09-23T10:00:27.716Z,53.83
2018-09-23T10:02:55.416Z,50.39
2018-09-23T10:05:23.083Z,51.88
2018-09-23T10:07:50.936Z,52.21
2018-09-23T10:10:18.916Z,52.16
2018-09-23T10:12:46.583Z,53.02
2018-09-23T10:15:14.452Z,50.24
2018-09-23T10:17:42.108Z,52.67
2018-09-23T10:20:09.803Z,51.99
2018-09-23T10:22:37.567Z,46.80
2018-09-23T10:25:05.324Z,48.35
2018-09-23T10:27:33.179Z,51.28
2018-09-23T10:30:00.849Z,48.21
2018-09-23T10:32:28.572Z,49.60
2018-09-23T10:34:56.255Z,45.18
2018-09-23T10:37:23.992Z,49.61
2018-09-23T10:39:51.647Z,49.23
2018-09-23T10:42:19.396Z,47.13
2018-09-23T10:44:47.108Z,50.54
2018-09-23T10:47:14.776Z,49.34
2018-09-23T10:49:42.693Z,49.09
2018-09-23T10:52:10.351Z,48.16
2018-09-23T10:54:38.041Z,48.92
2018-09-23T10:57:05.803Z,46.94
2018-09-23T10:59:33.594Z,47.29
2018-09-23T11:02:01.265Z,48.71
2018-09-23T11:04:28.940Z,47.00
2018-09-23T11:06:56.609Z,48.58
2018-09-23T11:09:24.328Z,47.79
2018-09-23T11:11:52.054Z,47.17
2018-09-23T11:14:19.753Z,44.80
2018-09-23T11:16:47.448Z,45.54
2018-09-23T11:19:15.155Z,46.17
2018-09-23T11:21:42.815Z,44.99
2018-09-23T11:24:10.583Z,46.55
2018-09-23T11:26:38.296Z,46.72
2018-09-23T11:29:06.070Z,46.04
2018-09-23T11:31:33.743Z,45.43
2018-09-23T11:34:01.480Z,44.76
2018-09-23T11:36:29.169Z,46.35
2018-09-23T11:38:56.844Z,45.99
2018-09-23T11:41:24.680Z,45.85
2018-09-23T11:43:52.372Z,44.90
2018-09-23T11:46:20.060Z,40.55
2018-09-23T11:48:47.776Z,43.72
2018-09-23T11:51:15.547Z,46.96
2018-09-23T11:53:43.215Z,43.18
2018-09-23T11:56:10.904Z,45.40
2018-09-23T11:58:38.588Z,46.42
2018-09-23T12:01:06.363Z,46.51
2018-09-23T12:03:34.033Z,47.15
2018-09-23T12:06:01.790Z,47.01
2018-09-23T12:08:29.622Z,48.19
2018-09-23T12:10:57.338Z,49.08
2018-09-23T12:13:24.991Z,48.46
2018-09-23T12:15:52.699Z,45.50
2018-09-23T12:18:20.383Z,46.58
2018-09-23T12:20:48.064Z,46.20
2018-09-23T12:23:15.778Z,46.08
2018-09-23T12:25:43.554Z,48.05
2018-09-23T12:28:11.168Z,48.19
2018-09-23T12:30:38.916Z,48.08
2018-09-23T12:33:07.475Z,48.62
2018-09-23T12:35:35.208Z,46.92
2018-09-23T12:38:02.941Z,48.46
2018-09-23T12:40:30.657Z,48.24
2018-09-23T12:42:58.333Z,48.78
2018-09-23T12:45:26.008Z,47.69
2018-09-23T12:47:53.684Z,50.07
2018-09-23T12:50:21.460Z,50.11
2018-09-23T12:52:49.134Z,49.29
2018-09-23T12:55:16.832Z,49.94
2018-09-23T12:57:44.513Z,48.99
2018-09-23T13:00:12.212Z,50.66
2018-09-23T13:02:39.981Z,51.31
2018-09-23T13:05:07.739Z,50.96
2018-09-23T13:07:35.440Z,52.39
2018-09-23T13:10:03.260Z,51.22
2018-09-23T13:12:30.912Z,51.02
2018-09-23T13:14:59.012Z,52.11
2018-09-23T13:17:26.672Z,50.38
2018-09-23T13:19:54.344Z,51.42
2018-09-23T13:22:22.056Z,51.88
2018-09-23T13:24:49.775Z,49.80
2018-09-23T13:27:17.473Z,53.03
2018-09-23T13:29:45.175Z,52.69
2018-09-23T13:32:12.855Z,52.47
2018-09-23T13:34:40.565Z,52.53
2018-09-23T13:37:08.295Z,54.80
2018-09-23T13:39:35.983Z,54.12
2018-09-23T13:42:03.672Z,52.39
2018-09-23T13:44:31.355Z,52.48
2018-09-23T13:46:59.264Z,53.08
2018-09-23T13:49:27.343Z,53.03
2018-09-23T13:51:55.114Z,50.74
2018-09-23T13:54:22.883Z,52.29
2018-09-23T13:56:50.577Z,52.97
2018-09-23T13:59:18.262Z,53.16
2018-09-23T14:01:45.927Z,53.91
2018-09-23T14:04:13.652Z,52.56
2018-09-23T14:06:41.368Z,54.35
2018-09-23T14:09:09.056Z,53.96
2018-09-23T14:11:36.776Z,53.29
2018-09-23T14:14:04.481Z,54.90
2018-09-23T14:16:32.156Z,55.35
2018-09-23T14:18:59.955Z,55.17
2018-09-23T14:21:27.740Z,55.34
2018-09-23T14:23:55.561Z,55.60
2018-09-23T14:26:23.828Z,55.88
2018-09-23T14:28:51.544Z,54.79
2018-09-23T14:31:19.236Z,56.54
2018-09-23T14:33:46.944Z,55.49
2018-09-23T14:36:14.672Z,55.59
2018-09-23T14:38:42.351Z,56.37
2018-09-23T14:41:10.043Z,56.19
2018-09-23T14:43:38.088Z,57.53
2018-09-23T14:46:06.103Z,57.11
2018-09-23T14:48:33.796Z,56.90
2018-09-23T14:51:01.492Z,57.51
2018-09-23T14:53:29.170Z,56.10
2018-09-23T14:55:56.847Z,57.40
2018-09-23T14:58:24.564Z,58.02
2018-09-23T15:00:52.239Z,56.94
2018-09-23T15:03:20.104Z,55.94
2018-09-23T15:05:48.137Z,55.19
2018-09-23T15:08:15.828Z,56.59
2018-09-23T15:10:43.542Z,58.55
2018-09-23T15:13:11.212Z,58.25
2018-09-23T15:15:38.907Z,56.93
2018-09-23T15:18:06.680Z,58.50
2018-09-23T15:20:34.372Z,58.41
2018-09-23T15:23:02.082Z,58.43
2018-09-23T15:25:29.771Z,59.37
2018-09-23T15:27:57.675Z,59.54
2018-09-23T15:30:25.428Z,59.95
2018-09-23T15:32:53.124Z,59.54
2018-09-23T15:35:20.804Z,59.73
2018-09-23T15:37:48.504Z,60.63
2018-09-23T15:40:16.173Z,60.51
2018-09-23T15:42:43.968Z,60.59
2018-09-23T15:45:11.722Z,61.10
2018-09-23T15:47:39.383Z,61.29
2018-09-23T15:50:07.063Z,62.21
2018-09-23T15:52:34.835Z,61.60
2018-09-23T15:55:02.520Z,60.98
2018-09-23T15:57:30.234Z,62.57
2018-09-23T15:59:57.932Z,63.29
2018-09-23T16:02:25.608Z,62.93
2018-09-23T16:04:53.344Z,63.80
2018-09-23T16:07:21.076Z,63.86
2018-09-23T16:09:48.813Z,64.17
2018-09-23T16:12:16.471Z,65.03
2018-09-23T16:14:44.265Z,64.89
2018-09-23T16:17:12.036Z,65.34
2018-09-23T16:19:39.748Z,64.10
2018-09-23T16:22:07.488Z,64.69
2018-09-23T16:24:35.152Z,63.90
2018-09-23T16:27:02.846Z,63.09
2018-09-23T16:29:30.604Z,63.42
2018-09-23T16:31:58.298Z,63.90
2018-09-23T16:34:27.033Z,64.58
2018-09-23T16:36:54.724Z,64.13
2018-09-23T16:39:22.436Z,63.09
2018-09-23T16:41:50.137Z,64.10
2018-09-23T16:44:17.801Z,64.18
2018-09-23T16:46:45.545Z,64.43
2018-09-23T16:49:13.199Z,64.56
2018-09-23T16:51:40.863Z,65.21
2018-09-23T16:54:08.572Z,65.69
2018-09-23T16:56:36.250Z,65.35
2018-09-23T16:59:04.090Z,66.56
2018-09-23T17:01:31.768Z,65.37
2018-09-23T17:03:59.437Z,65.75
2018-09-23T17:06:27.156Z,66.99
2018-09-23T17:08:54.871Z,66.42
2018-09-23T17:11:22.516Z,64.35
2018-09-23T17:13:50.198Z,66.61
2018-09-23T17:16:17.865Z,65.96
2018-09-23T17:18:45.545Z,65.94
2018-09-23T17:21:13.260Z,66.37
2018-09-23T17:23:40.997Z,66.89
2018-09-23T17:26:08.668Z,66.56
2018-09-23T17:28:36.440Z,66.28
2018-09-23T17:31:04.085Z,67.32
2018-09-23T17:33:31.749Z,67.11
2018-09-23T17:35:59.467Z,67.26
2018-09-23T17:38:27.141Z,66.41
2018-09-23T17:40:54.819Z,67.27
2018-09-23T17:43:22.553Z,68.28
2018-09-23T17:45:50.315Z,68.40
2018-09-23T17:48:17.967Z,67.90
2018-09-23T17:50:45.677Z,68.50
2018-09-23T17:53:13.398Z,67.46
2018-09-23T17:55:41.211Z,67.36
2018-09-23T17:58:08.873Z,68.54
2018-09-23T18:00:39.667Z,68.13
2018-09-23T18:03:07.383Z,68.64
2018-09-23T18:05:35.063Z,68.91
2018-09-23T18:08:02.832Z,68.83
2018-09-23T18:10:30.507Z,68.55
2018-09-23T18:12:58.192Z,69.83
2018-09-23T18:15:25.933Z,67.43
2018-09-23T18:17:53.612Z,68.40
2018-09-23T18:20:21.332Z,68.20
2018-09-23T18:22:49.064Z,68.68
2018-09-23T18:25:16.908Z,68.99
2018-09-23T18:27:44.630Z,69.91
2018-09-23T18:30:12.328Z,67.85
2018-09-23T18:32:39.994Z,67.79
2018-09-23T18:35:07.688Z,68.23
2018-09-23T18:37:35.405Z,68.09
2018-09-23T18:40:03.115Z,67.04
2018-09-23T18:42:30.867Z,68.77
2018-09-23T18:44:58.532Z,69.30
2018-09-23T18:50:01.927Z,68.82
2018-09-23T18:52:30.336Z,69.17
2018-09-23T18:55:03.691Z,68.98
2018-09-23T18:57:31.436Z,69.01
2018-09-23T18:59:59.101Z,69.29
2018-09-23T19:02:26.776Z,69.33
2018-09-23T19:04:54.528Z,70.48
2018-09-23T19:07:22.224Z,70.06
2018-09-23T19:09:50.028Z,68.32
2018-09-23T19:12:17.757Z,69.09
2018-09-23T19:14:45.431Z,67.79
2018-09-23T19:17:13.107Z,68.80
2018-09-23T19:19:46.473Z,69.84
2018-09-23T19:22:19.688Z,69.65
2018-09-23T19:24:47.406Z,69.82
2018-09-23T19:27:15.073Z,69.21
2018-09-23T19:29:42.757Z,69.42
2018-09-23T19:32:10.466Z,70.03
2018-09-23T19:34:38.129Z,70.52
2018-09-23T19:37:06.072Z,69.96
2018-09-23T19:39:33.747Z,70.40
2018-09-23T19:42:01.469Z,70.10
2018-09-23T19:44:29.174Z,70.30
2018-09-23T19:46:56.936Z,70.81
2018-09-23T19:49:25.038Z,70.05
2018-09-23T19:51:52.683Z,70.54
2018-09-23T19:54:20.357Z,70.92
2018-09-23T19:56:48.131Z,70.86
2018-09-23T19:59:15.821Z,70.81
2018-09-23T20:01:43.488Z,71.33
2018-09-23T20:04:11.208Z,70.69
2018-09-23T20:06:38.966Z,70.95
2018-09-23T20:09:08.632Z,71.26
2018-09-23T20:11:36.359Z,71.87
2018-09-23T20:14:04.103Z,71.95
2018-09-23T20:16:31.781Z,71.10
2018-09-23T20:18:59.440Z,70.84
2018-09-23T20:21:27.687Z,71.34
2018-09-23T20:23:55.352Z,71.59
2018-09-23T20:26:23.044Z,72.07
2018-09-23T20:28:50.764Z,72.11
2018-09-23T20:31:18.415Z,72.16
2018-09-23T20:33:46.124Z,72.73
2018-09-23T20:36:13.816Z,73.62
2018-09-23T20:38:41.496Z,73.89
2018-09-23T20:41:09.248Z,73.91
2018-09-23T20:43:36.909Z,74.04
2018-09-23T20:46:04.584Z,74.25
2018-09-23T20:48:32.263Z,75.36
2018-09-23T20:50:59.955Z,75.39
2018-09-23T20:53:27.691Z,74.81
2018-09-23T20:55:55.381Z,74.82
2018-09-23T20:58:23.080Z,73.90
2018-09-23T21:00:50.784Z,74.54
2018-09-23T21:03:18.449Z,75.47
2018-09-23T21:05:46.137Z,75.37
2018-09-23T21:08:13.853Z,74.34
2018-09-23T21:10:41.568Z,74.63
2018-09-23T21:13:09.292Z,74.33
2018-09-23T21:15:37.045Z,74.18
2018-09-23T21:18:04.792Z,73.79
2018-09-23T21:20:32.464Z,74.18
2018-09-23T21:23:00.132Z,74.13
2018-09-23T21:25:27.795Z,75.05
2018-09-23T21:27:55.510Z,74.63
2018-09-23T21:30:23.173Z,75.09
2018-09-23T21:32:50.844Z,75.49
2018-09-23T21:35:18.540Z,75.05
2018-09-23T21:37:46.192Z,75.23
2018-09-23T21:40:13.845Z,74.63
2018-09-23T21:42:41.520Z,75.27
2018-09-23T21:45:09.209Z,75.62
2018-09-23T21:47:36.881Z,75.17
2018-09-23T21:50:04.628Z,74.12
2018-09-23T21:52:32.315Z,74.56
2018-09-23T21:55:00.068Z,74.28
2018-09-23T21:57:27.731Z,74.59
2018-09-23T21:59:55.408Z,74.85
2018-09-23T22:02:23.248Z,75.00
2018-09-23T22:04:50.951Z,74.54
2018-09-23T22:07:18.616Z,74.98
2018-09-23T22:09:46.365Z,73.86
2018-09-23T22:12:14.050Z,73.56
2018-09-23T22:14:41.713Z,73.00
2018-09-23T22:17:09.408Z,73.61
2018-09-23T22:19:37.153Z,72.64
2018-09-23T22:22:04.882Z,73.08
2018-09-23T22:24:32.544Z,73.85
2018-09-23T22:27:00.352Z,74.28
2018-09-23T22:29:28.083Z,73.64
2018-09-23T22:31:55.760Z,74.22
2018-09-23T22:34:23.511Z,74.67
2018-09-23T22:36:51.192Z,73.76
2018-09-23T22:39:18.893Z,74.33
2018-09-23T22:41:46.684Z,74.19
2018-09-23T22:44:14.324Z,73.77
2018-09-23T22:46:42.020Z,74.30
2018-09-23T22:49:09.702Z,73.85
2018-09-23T22:51:37.375Z,73.03
2018-09-23T22:54:05.098Z,72.56
2018-09-23T22:56:32.775Z,72.60
2018-09-23T22:59:00.524Z,72.83
2018-09-23T23:01:28.212Z,72.96
2018-09-23T23:03:55.898Z,74.22
2018-09-23T23:06:23.544Z,74.08
2018-09-23T23:08:51.264Z,74.30
2018-09-23T23:11:18.932Z,74.49
2018-09-23T23:13:46.591Z,73.19
2018-09-23T23:16:14.277Z,73.40
2018-09-23T23:18:41.952Z,73.22
2018-09-23T23:21:09.636Z,72.49
2018-09-23T23:23:37.311Z,72.64
2018-09-23T23:26:05.056Z,72.45
2018-09-23T23:28:32.742Z,72.84
2018-09-23T23:31:00.407Z,72.71
2018-09-23T23:33:28.061Z,72.24
2018-09-23T23:35:55.775Z,73.76
2018-09-23T23:38:23.469Z,72.75
2018-09-23T23:40:51.145Z,72.82
2018-09-23T23:43:18.856Z,73.01
2018-09-23T23:45:46.595Z,72.71
2018-09-23T23:48:14.313Z,72.99
2018-09-23T23:50:41.984Z,72.76
2018-09-23T23:53:09.658Z,73.38
2018-09-23T23:55:37.344Z,74.63
2018-09-23T23:58:05.033Z,74.61
